createdAt,value
2019-04-06T00:01:27.841Z,34.85
2019-04-06T00:03:59.005Z,42.00
2019-04-06T00:06:29.636Z,37.73
2019-04-06T00:09:00.564Z,33.18
2019-04-06T00:11:33.347Z,40.23
2019-04-06T00:14:04.307Z,38.63
2019-04-06T00:16:35.347Z,38.78
2019-04-06T00:19:06.609Z,40.78
2019-04-06T00:21:37.402Z,42.60
2019-04-06T00:24:08.561Z,40.65
2019-04-06T00:26:39.715Z,35.48
2019-04-06T00:29:10.667Z,35.55
2019-04-06T00:31:43.332Z,36.98
2019-04-06T00:34:14.216Z,42.10
2019-04-06T00:39:15.739Z,34.50
2019-04-06T00:41:46.801Z,36.85
2019-04-06T00:44:17.787Z,34.90
2019-04-06T00:46:48.812Z,36.38
2019-04-06T00:49:19.839Z,36.33
2019-04-06T00:51:50.571Z,36.65
2019-04-06T00:54:21.417Z,35.60
2019-04-06T00:56:53.871Z,37.95
2019-04-06T00:59:24.912Z,33.65
2019-04-06T01:01:56.475Z,32.45
2019-04-06T01:04:27.864Z,35.13
2019-04-06T01:07:00.040Z,32.75
2019-04-06T01:09:31.183Z,40.20
2019-04-06T01:12:02.369Z,32.65
2019-04-06T01:14:33.354Z,39.60
2019-04-06T01:17:04.593Z,31.97
2019-04-06T01:19:35.487Z,33.88
2019-04-06T01:22:06.574Z,46.65
2019-04-06T01:24:38.056Z,35.73
2019-04-06T01:27:08.989Z,43.08
2019-04-06T01:29:40.827Z,37.25
2019-04-06T01:32:11.698Z,36.17
2019-04-06T01:34:42.578Z,34.05
2019-04-06T01:37:14.651Z,34.92
2019-04-06T01:39:45.852Z,36.40
2019-04-06T01:42:16.805Z,39.73
2019-04-06T01:44:48.273Z,32.23
2019-04-06T01:47:19.214Z,29.40
2019-04-06T01:49:49.777Z,30.77
2019-04-06T01:52:20.791Z,32.73
2019-04-06T01:54:51.758Z,34.85
2019-04-06T01:57:22.487Z,32.17
2019-04-06T01:59:53.951Z,34.15
2019-04-06T02:02:26.453Z,35.63
2019-04-06T02:04:57.377Z,31.97
2019-04-06T02:07:29.015Z,35.63
2019-04-06T02:09:59.670Z,31.65
2019-04-06T02:12:31.252Z,37.13
2019-04-06T02:15:02.404Z,29.32
2019-04-06T02:17:33.329Z,32.17
2019-04-06T02:20:04.913Z,30.17
2019-04-06T02:22:36.163Z,32.75
2019-04-06T02:25:07.203Z,29.10
2019-04-06T02:27:39.132Z,29.18
2019-04-06T02:30:11.794Z,34.10
2019-04-06T02:32:44.415Z,42.62
2019-04-06T02:35:15.311Z,31.57
2019-04-06T02:37:47.989Z,29.70
2019-04-06T02:40:20.621Z,27.27
2019-04-06T02:42:52.915Z,28.45
2019-04-06T02:45:24.142Z,32.93
2019-04-06T02:47:55.261Z,28.85
2019-04-06T02:50:26.231Z,25.88
2019-04-06T02:52:57.548Z,30.23
2019-04-06T02:55:28.584Z,29.82
2019-04-06T02:57:59.471Z,30.85
2019-04-06T03:00:31.001Z,31.60
2019-04-06T03:03:01.956Z,26.30
2019-04-06T03:05:33.323Z,32.78
2019-04-06T03:08:04.323Z,27.00
2019-04-06T03:10:35.188Z,28.38
2019-04-06T03:13:06.207Z,37.08
2019-04-06T03:15:37.358Z,29.42
2019-04-06T03:18:08.287Z,32.23
2019-04-06T03:20:39.261Z,31.15
2019-04-06T03:23:10.332Z,29.65
2019-04-06T03:25:41.805Z,29.45
2019-04-06T03:28:12.722Z,30.08
2019-04-06T03:30:44.516Z,26.80
2019-04-06T03:33:15.578Z,31.75
2019-04-06T03:35:49.441Z,25.20
2019-04-06T03:38:20.074Z,31.33
2019-04-06T03:40:51.614Z,31.30
2019-04-06T03:43:23.113Z,39.10
2019-04-06T03:45:54.519Z,27.90
2019-04-06T03:48:25.770Z,26.23
2019-04-06T03:50:56.860Z,26.30
2019-04-06T03:53:29.062Z,30.65
2019-04-06T03:56:00.424Z,24.90
2019-04-06T03:58:31.935Z,31.30
2019-04-06T04:01:03.291Z,27.93
2019-04-06T04:03:34.543Z,30.40
2019-04-06T04:06:05.821Z,34.58
2019-04-06T04:08:36.575Z,35.60
2019-04-06T04:11:08.940Z,28.35
2019-04-06T04:13:40.054Z,31.60
2019-04-06T04:16:10.974Z,28.87
2019-04-06T04:18:41.951Z,27.80
2019-04-06T04:21:13.169Z,28.35
2019-04-06T04:23:44.216Z,26.40
2019-04-06T04:26:15.515Z,28.02
2019-04-06T04:28:47.071Z,28.30
2019-04-06T04:31:19.035Z,29.60
2019-04-06T04:33:50.088Z,28.67
2019-04-06T04:36:21.289Z,28.00
2019-04-06T04:38:52.455Z,30.40
2019-04-06T04:41:23.262Z,28.07
2019-04-06T04:43:54.251Z,27.82
2019-04-06T04:46:25.386Z,30.60
2019-04-06T04:48:56.329Z,30.33
2019-04-06T04:51:27.372Z,29.30
2019-04-06T04:53:58.717Z,31.33
2019-04-06T04:56:30.998Z,34.13
2019-04-06T04:59:01.910Z,33.13
2019-04-06T05:01:33.211Z,32.90
2019-04-06T05:04:04.386Z,29.48
2019-04-06T05:06:35.526Z,29.40
2019-04-06T05:09:07.428Z,28.10
2019-04-06T05:11:38.404Z,26.45
2019-04-06T05:14:12.561Z,31.25
2019-04-06T05:16:43.713Z,29.02
2019-04-06T05:19:14.673Z,29.30
2019-04-06T05:21:46.055Z,27.58
2019-04-06T05:24:18.241Z,30.77
2019-04-06T05:26:50.068Z,28.73
2019-04-06T05:29:21.716Z,31.52
2019-04-06T05:31:52.752Z,28.75
2019-04-06T05:34:23.912Z,32.40
2019-04-06T05:36:55.091Z,27.70
2019-04-06T05:39:25.997Z,31.52
2019-04-06T05:41:57.048Z,28.77
2019-04-06T05:44:28.614Z,29.20
2019-04-06T05:46:59.805Z,28.07
2019-04-06T05:49:30.702Z,29.07
2019-04-06T05:52:01.897Z,38.17
2019-04-06T05:54:33.280Z,33.38
2019-04-06T05:57:04.675Z,32.50
2019-04-06T05:59:35.590Z,31.65
2019-04-06T06:02:07.816Z,30.88
2019-04-06T06:04:40.544Z,28.38
2019-04-06T06:07:15.433Z,27.85
2019-04-06T06:09:46.611Z,29.27
2019-04-06T06:12:17.252Z,27.48
2019-04-06T06:14:48.428Z,31.10
2019-04-06T06:17:19.563Z,26.17
2019-04-06T06:19:50.799Z,27.82
2019-04-06T06:22:21.908Z,30.92
2019-04-06T06:24:53.094Z,34.43
2019-04-06T06:27:24.324Z,29.45
2019-04-06T06:29:55.607Z,28.90
2019-04-06T06:32:27.210Z,32.85
2019-04-06T06:34:58.942Z,33.63
2019-04-06T06:37:30.346Z,31.07
2019-04-06T06:40:01.479Z,27.87
2019-04-06T06:42:34.534Z,28.90
2019-04-06T06:45:07.082Z,35.50
2019-04-06T06:47:38.511Z,33.18
2019-04-06T06:50:09.304Z,25.60
2019-04-06T06:52:40.224Z,28.55
2019-04-06T06:55:10.944Z,32.88
2019-04-06T06:57:45.780Z,27.48
2019-04-06T07:00:16.732Z,27.98
2019-04-06T07:02:53.684Z,30.40
2019-04-06T07:05:27.768Z,28.50
2019-04-06T07:07:59.501Z,31.57
2019-04-06T07:10:35.196Z,26.62
2019-04-06T07:13:07.348Z,30.90
2019-04-06T07:15:43.422Z,28.80
2019-04-06T07:18:18.376Z,32.10
2019-04-06T07:20:51.356Z,30.90
2019-04-06T07:23:26.824Z,25.37
2019-04-06T07:25:59.030Z,33.45
2019-04-06T07:28:37.911Z,27.55
2019-04-06T07:31:04.166Z,25.62
2019-04-06T07:33:36.885Z,24.63
2019-04-06T07:36:08.175Z,29.12
2019-04-06T07:38:41.774Z,27.98
2019-04-06T07:41:12.724Z,26.12
2019-04-06T07:43:43.816Z,29.00
2019-04-06T07:46:15.655Z,29.55
2019-04-06T07:48:47.313Z,25.80
2019-04-06T07:51:19.139Z,29.30
2019-04-06T07:53:50.736Z,31.00
2019-04-06T07:56:21.873Z,27.70
2019-04-06T07:58:53.507Z,24.27
2019-04-06T08:01:24.542Z,24.20
2019-04-06T08:03:56.350Z,34.08
2019-04-06T08:06:27.509Z,28.40
2019-04-06T08:08:58.923Z,25.65
2019-04-06T08:11:31.563Z,29.20
2019-04-06T08:14:02.940Z,26.95
2019-04-06T08:17:00.974Z,31.02
2019-04-06T08:19:32.692Z,32.53
2019-04-06T08:22:04.919Z,29.25
2019-04-06T08:24:36.347Z,30.08
2019-04-06T08:27:07.361Z,28.23
2019-04-06T08:29:38.456Z,31.02
2019-04-06T08:32:09.295Z,29.30
2019-04-06T08:34:40.239Z,30.62
2019-04-06T08:37:11.681Z,25.70
2019-04-06T08:39:42.506Z,26.82
2019-04-06T08:42:13.550Z,21.45
2019-04-06T08:44:44.607Z,24.70
2019-04-06T08:47:15.734Z,37.03
2019-04-06T08:49:46.612Z,25.27
2019-04-06T08:52:17.796Z,21.73
2019-04-06T08:54:48.886Z,23.50
2019-04-06T08:57:22.492Z,21.17
2019-04-06T08:59:52.610Z,23.95
2019-04-06T09:02:24.483Z,24.12
2019-04-06T09:04:56.098Z,28.42
2019-04-06T09:07:27.056Z,27.17
2019-04-06T09:09:58.423Z,26.23
2019-04-06T09:12:29.723Z,24.80
2019-04-06T09:15:01.751Z,24.47
2019-04-06T09:17:34.659Z,25.48
2019-04-06T09:20:08.750Z,20.20
2019-04-06T09:22:41.322Z,22.35
2019-04-06T09:25:12.524Z,22.62
2019-04-06T09:27:43.662Z,18.42
2019-04-06T09:30:15.974Z,21.68
2019-04-06T09:32:47.972Z,19.87
2019-04-06T09:35:19.263Z,20.90
2019-04-06T09:37:50.462Z,27.82
2019-04-06T09:40:21.617Z,24.70
2019-04-06T09:42:53.032Z,20.80
2019-04-06T09:45:27.346Z,21.15
2019-04-06T09:48:01.094Z,22.15
2019-04-06T09:50:34.721Z,21.40
2019-04-06T09:53:07.602Z,22.90
2019-04-06T09:55:40.288Z,26.25
2019-04-06T09:58:13.426Z,21.82
2019-04-06T10:00:46.152Z,21.55
2019-04-06T10:03:18.815Z,24.27
2019-04-06T10:05:51.776Z,20.95
2019-04-06T10:08:25.129Z,19.62
2019-04-06T10:10:58.062Z,20.95
2019-04-06T10:13:31.409Z,22.22
2019-04-06T10:16:04.351Z,23.10
2019-04-06T10:18:37.139Z,22.70
2019-04-06T10:21:09.911Z,20.02
2019-04-06T10:23:43.276Z,16.37
2019-04-06T10:26:16.332Z,23.10
2019-04-06T10:28:47.545Z,20.88
2019-04-06T10:31:20.687Z,19.17
2019-04-06T10:33:54.195Z,20.30
2019-04-06T10:36:27.046Z,18.67
2019-04-06T10:39:00.508Z,20.50
2019-04-06T10:41:33.895Z,20.27
2019-04-06T10:44:06.699Z,23.60
2019-04-06T10:46:39.732Z,17.77
2019-04-06T10:49:12.652Z,20.40
2019-04-06T10:51:45.467Z,19.60
2019-04-06T10:54:18.027Z,20.05
2019-04-06T10:56:50.627Z,21.25
2019-04-06T10:59:23.203Z,21.05
2019-04-06T11:01:55.881Z,23.42
2019-04-06T11:04:28.571Z,18.77
2019-04-06T11:07:01.145Z,23.50
2019-04-06T11:09:33.766Z,20.57
2019-04-06T11:12:06.819Z,21.48
2019-04-06T11:14:39.442Z,18.00
2019-04-06T11:17:10.067Z,16.05
2019-04-06T11:19:43.015Z,18.60
2019-04-06T11:22:17.082Z,19.10
2019-04-06T11:24:49.691Z,18.35
2019-04-06T11:27:22.091Z,19.30
2019-04-06T11:29:55.013Z,22.40
2019-04-06T11:32:28.882Z,16.93
2019-04-06T11:35:02.972Z,14.07
2019-04-06T11:37:36.505Z,18.40
2019-04-06T11:40:09.450Z,20.08
2019-04-06T11:42:42.083Z,18.50
2019-04-06T11:45:14.723Z,15.28
2019-04-06T11:47:48.256Z,19.57
2019-04-06T11:50:20.828Z,21.60
2019-04-06T11:52:53.535Z,17.62
2019-04-06T11:55:26.132Z,19.82
2019-04-06T11:57:58.612Z,18.85
2019-04-06T12:00:30.963Z,16.95
2019-04-06T12:03:03.684Z,17.57
2019-04-06T12:05:36.243Z,18.48
2019-04-06T12:08:08.908Z,20.57
2019-04-06T12:10:41.357Z,19.60
2019-04-06T12:13:14.005Z,19.40
2019-04-06T12:15:46.817Z,20.08
2019-04-06T12:18:19.353Z,22.35
2019-04-06T12:20:52.013Z,21.17
2019-04-06T12:23:24.594Z,18.92
2019-04-06T12:25:57.323Z,13.93
2019-04-06T12:28:29.996Z,13.28
2019-04-06T12:31:02.498Z,16.85
2019-04-06T12:33:35.420Z,15.38
2019-04-06T12:36:06.802Z,22.25
2019-04-06T12:38:39.603Z,21.35
2019-04-06T12:41:12.300Z,17.57
2019-04-06T12:43:44.789Z,13.88
2019-04-06T12:46:17.547Z,15.48
2019-04-06T12:48:52.385Z,18.32
2019-04-06T12:51:24.161Z,16.25
2019-04-06T12:53:58.186Z,15.93
2019-04-06T12:56:30.594Z,17.57
2019-04-06T12:59:03.284Z,16.37
2019-04-06T13:01:35.283Z,17.00
2019-04-06T13:04:07.660Z,16.87
2019-04-06T13:06:44.262Z,16.70
2019-04-06T13:09:16.919Z,21.82
2019-04-06T13:11:49.444Z,19.17
2019-04-06T13:14:22.107Z,16.48
2019-04-06T13:16:54.667Z,18.75
2019-04-06T13:19:27.164Z,13.93
2019-04-06T13:21:59.801Z,17.30
2019-04-06T13:24:32.604Z,16.67
2019-04-06T13:27:05.233Z,16.93
2019-04-06T13:29:37.779Z,15.60
2019-04-06T13:32:10.298Z,16.85
2019-04-06T13:34:42.722Z,21.87
2019-04-06T13:37:15.522Z,18.27
2019-04-06T13:39:47.915Z,17.62
2019-04-06T13:42:20.443Z,16.75
2019-04-06T13:44:53.034Z,12.07
2019-04-06T13:47:25.576Z,16.15
2019-04-06T13:49:58.082Z,18.15
2019-04-06T13:52:30.954Z,17.45
2019-04-06T13:55:03.602Z,20.12
2019-04-06T13:57:36.566Z,20.90
2019-04-06T14:00:10.060Z,16.25
2019-04-06T14:02:42.614Z,13.83
2019-04-06T14:05:15.067Z,19.17
2019-04-06T14:07:47.563Z,14.80
2019-04-06T14:10:19.851Z,14.43
2019-04-06T14:12:52.403Z,20.08
2019-04-06T14:15:22.914Z,16.42
2019-04-06T14:17:55.969Z,18.98
2019-04-06T14:20:28.555Z,20.27
2019-04-06T14:23:00.955Z,17.62
2019-04-06T14:25:33.447Z,18.57
2019-04-06T14:28:04.309Z,16.25
2019-04-06T14:30:37.162Z,16.27
2019-04-06T14:33:07.766Z,15.30
2019-04-06T14:35:40.443Z,13.98
2019-04-06T14:38:13.312Z,22.02
2019-04-06T14:40:45.804Z,15.72
2019-04-06T14:43:18.290Z,20.88
2019-04-06T14:45:59.031Z,20.23
2019-04-06T14:49:10.612Z,20.45
2019-04-06T14:51:34.757Z,19.70
2019-04-06T14:54:08.080Z,19.50
2019-04-06T14:56:40.563Z,16.50
2019-04-06T14:59:12.919Z,21.23
2019-04-06T15:01:56.691Z,18.05
2019-04-06T15:04:20.037Z,18.62
2019-04-06T15:06:52.603Z,15.60
2019-04-06T15:09:25.598Z,14.83
2019-04-06T15:11:58.110Z,16.42
2019-04-06T15:14:28.648Z,14.50
2019-04-06T15:17:01.155Z,16.05
2019-04-06T15:19:33.953Z,24.67
2019-04-06T15:22:06.282Z,22.37
2019-04-06T15:24:38.907Z,17.75
2019-04-06T15:27:11.450Z,18.85
2019-04-06T15:29:44.176Z,16.80
2019-04-06T15:32:16.622Z,16.50
2019-04-06T15:34:49.473Z,22.67
2019-04-06T15:37:21.943Z,24.15
2019-04-06T15:39:54.675Z,18.60
2019-04-06T15:42:25.761Z,21.57
2019-04-06T15:44:58.106Z,19.02
2019-04-06T15:47:30.699Z,20.08
2019-04-06T15:50:03.251Z,21.77
2019-04-06T15:52:35.721Z,20.05
2019-04-06T15:55:09.718Z,18.52
2019-04-06T15:57:42.131Z,17.57
2019-04-06T16:00:15.995Z,15.32
2019-04-06T16:02:48.522Z,22.60
2019-04-06T16:05:21.423Z,22.25
2019-04-06T16:07:54.041Z,22.48
2019-04-06T16:10:27.217Z,21.57
2019-04-06T16:13:00.246Z,16.57
2019-04-06T16:15:33.467Z,30.30
2019-04-06T16:18:06.078Z,17.95
2019-04-06T16:20:39.723Z,26.48
2019-04-06T16:23:12.236Z,23.65
2019-04-06T16:25:45.023Z,34.85
2019-04-06T16:28:18.246Z,28.30
2019-04-06T16:30:51.393Z,21.60
2019-04-06T16:33:24.115Z,26.27
2019-04-06T16:35:56.885Z,22.55
2019-04-06T16:38:29.524Z,15.75
2019-04-06T16:41:02.376Z,20.82
2019-04-06T16:43:35.058Z,25.55
2019-04-06T16:46:07.524Z,23.45
2019-04-06T16:48:39.948Z,18.17
2019-04-06T16:51:12.486Z,19.50
2019-04-06T16:53:47.490Z,18.48
2019-04-06T16:56:21.701Z,21.35
2019-04-06T16:58:54.445Z,24.43
2019-04-06T17:01:28.719Z,19.32
2019-04-06T17:04:02.403Z,26.50
2019-04-06T17:06:36.135Z,20.77
2019-04-06T17:09:09.533Z,24.40
2019-04-06T17:11:42.964Z,19.75
2019-04-06T17:14:16.273Z,22.17
2019-04-06T17:16:49.897Z,18.25
2019-04-06T17:19:22.571Z,23.02
2019-04-06T17:21:55.572Z,19.55
2019-04-06T17:24:28.310Z,15.75
2019-04-06T17:26:59.379Z,25.25
2019-04-06T17:29:32.941Z,21.20
2019-04-06T17:32:06.465Z,23.85
2019-04-06T17:34:39.631Z,23.02
2019-04-06T17:37:12.982Z,27.77
2019-04-06T17:39:45.714Z,29.00
2019-04-06T17:42:16.956Z,25.50
2019-04-06T17:44:49.732Z,25.85
2019-04-06T17:47:23.052Z,28.27
2019-04-06T17:49:56.366Z,63.25
2019-04-06T17:52:31.535Z,22.62
2019-04-06T17:55:06.300Z,22.75
2019-04-06T17:57:39.350Z,22.32
2019-04-06T18:00:13.452Z,24.50
2019-04-06T18:02:49.788Z,23.02
2019-04-06T18:05:20.746Z,26.60
2019-04-06T18:07:54.466Z,23.65
2019-04-06T18:10:27.887Z,28.15
2019-04-06T18:13:00.840Z,31.65
2019-04-06T18:15:32.476Z,20.82
2019-04-06T18:18:03.695Z,25.82
2019-04-06T18:20:35.069Z,22.05
2019-04-06T18:23:06.277Z,25.85
2019-04-06T18:25:37.577Z,19.30
2019-04-06T18:28:09.675Z,27.62
2019-04-06T18:30:40.652Z,21.35
2019-04-06T18:33:13.992Z,22.98
2019-04-06T18:35:56.536Z,25.68
2019-04-06T18:38:32.313Z,22.10
2019-04-06T18:41:04.787Z,19.98
2019-04-06T18:43:37.315Z,25.50
2019-04-06T18:46:09.125Z,25.15
2019-04-06T18:48:40.524Z,26.17
2019-04-06T18:51:12.304Z,26.50
2019-04-06T18:53:53.095Z,23.98
2019-04-06T18:56:25.893Z,42.00
2019-04-06T18:58:59.690Z,30.90
2019-04-06T19:01:36.490Z,33.05
2019-04-06T19:04:10.393Z,31.35
2019-04-06T19:06:42.036Z,33.90
2019-04-06T19:09:23.074Z,27.27
2019-04-06T19:11:57.063Z,26.10
2019-04-06T19:14:30.601Z,29.92
2019-04-06T19:17:09.363Z,27.52
2019-04-06T19:19:46.285Z,27.95
2019-04-06T19:22:26.348Z,25.52
2019-04-06T19:24:59.250Z,24.70
2019-04-06T19:27:30.559Z,24.37
2019-04-06T19:30:15.497Z,25.37
2019-04-06T19:32:47.634Z,29.12
2019-04-06T19:35:19.178Z,23.83
2019-04-06T19:37:50.643Z,30.45
2019-04-06T19:40:21.811Z,30.43
2019-04-06T19:42:53.778Z,31.52
2019-04-06T19:45:25.918Z,35.05
2019-04-06T19:47:57.415Z,35.85
2019-04-06T19:50:29.569Z,30.92
2019-04-06T19:53:00.834Z,32.98
2019-04-06T19:55:50.917Z,33.80
2019-04-06T19:58:22.712Z,41.35
2019-04-06T20:00:57.430Z,45.50
2019-04-06T20:03:36.479Z,42.25
2019-04-06T20:06:04.816Z,49.95
2019-04-06T20:08:36.333Z,48.35
2019-04-06T20:11:10.227Z,48.73
2019-04-06T20:13:41.165Z,56.80
2019-04-06T20:16:30.104Z,44.70
2019-04-06T20:19:07.792Z,45.20
2019-04-06T20:21:41.097Z,48.38
2019-04-06T20:24:14.677Z,59.80
2019-04-06T20:26:45.499Z,68.70
2019-04-06T20:29:17.126Z,55.70
2019-04-06T20:31:47.996Z,51.15
2019-04-06T20:34:20.637Z,46.02
2019-04-06T20:36:51.554Z,58.25
2019-04-06T20:39:23.635Z,42.73
2019-04-06T20:41:55.095Z,45.73
2019-04-06T20:44:25.919Z,50.58
2019-04-06T20:46:56.897Z,46.10
2019-04-06T20:49:28.285Z,58.23
2019-04-06T20:52:01.935Z,71.40
2019-04-06T20:54:33.152Z,66.57
2019-04-06T20:57:04.546Z,64.23
2019-04-06T20:59:36.746Z,57.27
2019-04-06T21:02:08.194Z,58.33
2019-04-06T21:04:39.761Z,52.78
2019-04-06T21:07:13.119Z,61.15
2019-04-06T21:09:44.679Z,73.92
2019-04-06T21:12:16.247Z,70.08
2019-04-06T21:14:48.025Z,64.72
2019-04-06T21:17:19.632Z,81.67
2019-04-06T21:19:53.943Z,105.35
2019-04-06T21:22:27.891Z,99.97
2019-04-06T21:25:00.362Z,91.82
2019-04-06T21:27:33.342Z,81.57
2019-04-06T21:30:07.222Z,77.53
2019-04-06T21:32:38.853Z,77.67
2019-04-06T21:35:11.371Z,80.85
2019-04-06T21:37:43.881Z,91.17
2019-04-06T21:40:15.895Z,94.13
2019-04-06T21:42:47.496Z,81.87
2019-04-06T21:45:18.705Z,80.20
2019-04-06T21:47:49.810Z,73.42
2019-04-06T21:50:21.913Z,69.50
2019-04-06T21:52:54.522Z,61.63
2019-04-06T21:55:27.270Z,62.38
2019-04-06T21:57:59.750Z,82.22
2019-04-06T22:00:33.301Z,85.38
2019-04-06T22:03:07.350Z,85.80
2019-04-06T22:05:39.029Z,75.85
2019-04-06T22:08:10.271Z,68.87
2019-04-06T22:10:42.357Z,69.97
2019-04-06T22:13:13.870Z,61.40
2019-04-06T22:15:45.163Z,77.50
2019-04-06T22:18:17.130Z,67.65
2019-04-06T22:20:49.125Z,63.10
2019-04-06T22:23:20.873Z,68.02
2019-04-06T22:25:53.648Z,62.38
2019-04-06T22:28:25.857Z,57.88
2019-04-06T22:30:57.520Z,58.10
2019-04-06T22:33:28.903Z,55.50
2019-04-06T22:36:01.448Z,57.95
2019-04-06T22:38:33.150Z,58.48
2019-04-06T22:41:04.763Z,49.40
2019-04-06T22:43:36.601Z,53.40
2019-04-06T22:46:08.225Z,59.18
2019-04-06T22:48:39.250Z,53.68
2019-04-06T22:51:11.204Z,51.92
2019-04-06T22:53:42.561Z,59.93
2019-04-06T22:56:14.976Z,63.92
2019-04-06T22:58:47.068Z,56.40
2019-04-06T23:01:19.976Z,45.90
2019-04-06T23:03:52.819Z,32.63
2019-04-06T23:06:25.907Z,36.58
2019-04-06T23:08:57.327Z,50.60
2019-04-06T23:11:29.007Z,37.75
2019-04-06T23:14:00.897Z,40.10
2019-04-06T23:16:32.331Z,37.80
2019-04-06T23:19:04.065Z,35.13
2019-04-06T23:21:35.388Z,36.30
2019-04-06T23:24:06.797Z,33.42
2019-04-06T23:26:38.311Z,37.63
2019-04-06T23:29:12.726Z,33.53
2019-04-06T23:31:44.143Z,36.77
2019-04-06T23:34:17.170Z,34.27
2019-04-06T23:36:48.400Z,34.03
2019-04-06T23:39:19.682Z,35.80
2019-04-06T23:41:50.901Z,31.02
2019-04-06T23:44:22.304Z,34.43
2019-04-06T23:46:54.350Z,37.50
2019-04-06T23:49:26.002Z,37.98
2019-04-06T23:51:57.766Z,35.68
2019-04-06T23:54:30.158Z,32.73
2019-04-06T23:57:01.428Z,36.13
2019-04-06T23:59:33.025Z,39.33
